sensor_id;sensor_type;location;lat;lon;timestamp;P1;durP1;ratioP1;P2;durP2;ratioP2
54919;SDS011;63804;53.120;8.764;2022-12-16T00:00:03;30.20;;;15.43;;
54919;SDS011;63804;53.120;8.764;2022-12-16T00:02:30;30.90;;;14.68;;
54919;SDS011;63804;53.120;8.764;2022-12-16T00:04:56;28.40;;;14.77;;
54919;SDS011;63804;53.120;8.764;2022-12-16T00:07:22;26.42;;;13.90;;
54919;SDS011;63804;53.120;8.764;2022-12-16T00:09:48;29.13;;;14.68;;
54919;SDS011;63804;53.120;8.764;2022-12-16T00:12:14;25.17;;;14.35;;
54919;SDS011;63804;53.120;8.764;2022-12-16T00:14:39;26.17;;;14.15;;
54919;SDS011;63804;53.120;8.764;2022-12-16T00:17:05;27.02;;;14.25;;
54919;SDS011;63804;53.120;8.764;2022-12-16T00:19:31;27.83;;;14.48;;
54919;SDS011;63804;53.120;8.764;2022-12-16T00:21:57;24.67;;;13.80;;
54919;SDS011;63804;53.120;8.764;2022-12-16T00:24:23;25.83;;;14.52;;
54919;SDS011;63804;53.120;8.764;2022-12-16T00:26:48;28.33;;;13.60;;
54919;SDS011;63804;53.120;8.764;2022-12-16T00:29:15;28.13;;;13.90;;
54919;SDS011;63804;53.120;8.764;2022-12-16T00:31:41;25.38;;;13.45;;
54919;SDS011;63804;53.120;8.764;2022-12-16T00:34:15;27.63;;;14.02;;
54919;SDS011;63804;53.120;8.764;2022-12-16T00:36:41;27.95;;;14.15;;
54919;SDS011;63804;53.120;8.764;2022-12-16T00:39:08;28.80;;;14.65;;
54919;SDS011;63804;53.120;8.764;2022-12-16T00:41:35;28.65;;;14.20;;
54919;SDS011;63804;53.120;8.764;2022-12-16T00:44:01;26.05;;;13.73;;
54919;SDS011;63804;53.120;8.764;2022-12-16T00:46:27;27.75;;;14.63;;
54919;SDS011;63804;53.120;8.764;2022-12-16T00:48:53;28.60;;;14.32;;
54919;SDS011;63804;53.120;8.764;2022-12-16T00:51:19;24.52;;;13.88;;
54919;SDS011;63804;53.120;8.764;2022-12-16T00:53:45;26.13;;;14.30;;
54919;SDS011;63804;53.120;8.764;2022-12-16T00:56:11;25.70;;;13.40;;
54919;SDS011;63804;53.120;8.764;2022-12-16T00:58:42;25.67;;;13.43;;
54919;SDS011;63804;53.120;8.764;2022-12-16T01:01:09;23.50;;;13.45;;
54919;SDS011;63804;53.120;8.764;2022-12-16T01:03:35;25.25;;;14.18;;
54919;SDS011;63804;53.120;8.764;2022-12-16T01:06:05;24.70;;;13.45;;
54919;SDS011;63804;53.120;8.764;2022-12-16T01:08:35;27.58;;;13.60;;
54919;SDS011;63804;53.120;8.764;2022-12-16T01:11:01;28.85;;;14.73;;
54919;SDS011;63804;53.120;8.764;2022-12-16T01:13:27;26.08;;;14.15;;
54919;SDS011;63804;53.120;8.764;2022-12-16T01:15:53;26.33;;;14.40;;
54919;SDS011;63804;53.120;8.764;2022-12-16T01:18:19;27.92;;;13.70;;
54919;SDS011;63804;53.120;8.764;2022-12-16T01:20:45;28.10;;;15.25;;
54919;SDS011;63804;53.120;8.764;2022-12-16T01:23:11;26.05;;;14.07;;
54919;SDS011;63804;53.120;8.764;2022-12-16T01:25:36;27.95;;;15.18;;
54919;SDS011;63804;53.120;8.764;2022-12-16T01:28:02;25.58;;;14.38;;
54919;SDS011;63804;53.120;8.764;2022-12-16T01:30:28;26.33;;;14.35;;
54919;SDS011;63804;53.120;8.764;2022-12-16T01:32:54;26.85;;;14.48;;
54919;SDS011;63804;53.120;8.764;2022-12-16T01:35:19;28.67;;;13.77;;
54919;SDS011;63804;53.120;8.764;2022-12-16T01:37:46;26.80;;;14.75;;
54919;SDS011;63804;53.120;8.764;2022-12-16T01:40:15;26.65;;;14.10;;
54919;SDS011;63804;53.120;8.764;2022-12-16T01:42:43;28.25;;;14.10;;
54919;SDS011;63804;53.120;8.764;2022-12-16T01:45:52;22.75;;;13.57;;
54919;SDS011;63804;53.120;8.764;2022-12-16T01:48:01;26.70;;;14.20;;
54919;SDS011;63804;53.120;8.764;2022-12-16T01:50:35;26.73;;;14.02;;
54919;SDS011;63804;53.120;8.764;2022-12-16T01:53:02;29.02;;;15.38;;
54919;SDS011;63804;53.120;8.764;2022-12-16T01:55:31;29.10;;;14.25;;
54919;SDS011;63804;53.120;8.764;2022-12-16T01:58:09;27.65;;;15.48;;
54919;SDS011;63804;53.120;8.764;2022-12-16T02:00:40;26.90;;;14.98;;
54919;SDS011;63804;53.120;8.764;2022-12-16T02:03:06;28.50;;;15.35;;
54919;SDS011;63804;53.120;8.764;2022-12-16T02:05:33;28.23;;;14.75;;
54919;SDS011;63804;53.120;8.764;2022-12-16T02:21:30;26.33;;;14.00;;
54919;SDS011;63804;53.120;8.764;2022-12-16T02:27:16;26.60;;;14.02;;
54919;SDS011;63804;53.120;8.764;2022-12-16T02:41:03;25.08;;;13.57;;
54919;SDS011;63804;53.120;8.764;2022-12-16T02:46:15;24.42;;;13.65;;
54919;SDS011;63804;53.120;8.764;2022-12-16T02:48:43;31.88;;;14.07;;
54919;SDS011;63804;53.120;8.764;2022-12-16T02:51:09;26.08;;;15.00;;
54919;SDS011;63804;53.120;8.764;2022-12-16T02:53:36;30.10;;;14.93;;
54919;SDS011;63804;53.120;8.764;2022-12-16T02:59:26;26.20;;;15.43;;
54919;SDS011;63804;53.120;8.764;2022-12-16T03:02:11;26.85;;;14.77;;
54919;SDS011;63804;53.120;8.764;2022-12-16T03:04:45;27.55;;;14.73;;
54919;SDS011;63804;53.120;8.764;2022-12-16T03:07:19;26.33;;;14.65;;
54919;SDS011;63804;53.120;8.764;2022-12-16T03:09:48;28.90;;;15.18;;
54919;SDS011;63804;53.120;8.764;2022-12-16T03:12:17;28.02;;;15.15;;
54919;SDS011;63804;53.120;8.764;2022-12-16T03:14:47;29.05;;;14.40;;
54919;SDS011;63804;53.120;8.764;2022-12-16T03:17:15;28.30;;;15.77;;
54919;SDS011;63804;53.120;8.764;2022-12-16T03:19:46;27.45;;;15.45;;
54919;SDS011;63804;53.120;8.764;2022-12-16T03:22:19;27.30;;;15.20;;
54919;SDS011;63804;53.120;8.764;2022-12-16T03:24:49;31.38;;;16.17;;
54919;SDS011;63804;53.120;8.764;2022-12-16T03:27:34;27.83;;;15.77;;
54919;SDS011;63804;53.120;8.764;2022-12-16T03:30:11;27.17;;;15.70;;
54919;SDS011;63804;53.120;8.764;2022-12-16T03:32:40;28.52;;;16.00;;
54919;SDS011;63804;53.120;8.764;2022-12-16T03:35:23;26.95;;;15.90;;
54919;SDS011;63804;53.120;8.764;2022-12-16T03:37:53;25.92;;;15.65;;
54919;SDS011;63804;53.120;8.764;2022-12-16T03:40:21;25.80;;;15.32;;
54919;SDS011;63804;53.120;8.764;2022-12-16T03:42:50;28.75;;;15.30;;
54919;SDS011;63804;53.120;8.764;2022-12-16T03:45:18;28.33;;;15.25;;
54919;SDS011;63804;53.120;8.764;2022-12-16T03:47:49;30.13;;;16.73;;
54919;SDS011;63804;53.120;8.764;2022-12-16T03:50:16;25.50;;;14.95;;
54919;SDS011;63804;53.120;8.764;2022-12-16T03:52:45;29.23;;;16.92;;
54919;SDS011;63804;53.120;8.764;2022-12-16T03:55:11;26.58;;;15.45;;
54919;SDS011;63804;53.120;8.764;2022-12-16T03:57:37;28.55;;;16.17;;
54919;SDS011;63804;53.120;8.764;2022-12-16T04:00:03;25.55;;;15.55;;
54919;SDS011;63804;53.120;8.764;2022-12-16T04:02:30;29.52;;;17.08;;
54919;SDS011;63804;53.120;8.764;2022-12-16T04:04:56;32.95;;;16.75;;
54919;SDS011;63804;53.120;8.764;2022-12-16T04:07:21;28.67;;;15.93;;
54919;SDS011;63804;53.120;8.764;2022-12-16T04:09:50;29.27;;;16.45;;
54919;SDS011;63804;53.120;8.764;2022-12-16T04:12:17;29.73;;;17.17;;
54919;SDS011;63804;53.120;8.764;2022-12-16T04:15:03;29.33;;;17.58;;
54919;SDS011;63804;53.120;8.764;2022-12-16T04:17:48;28.63;;;15.30;;
54919;SDS011;63804;53.120;8.764;2022-12-16T04:20:35;28.38;;;16.35;;
54919;SDS011;63804;53.120;8.764;2022-12-16T04:23:21;27.92;;;15.27;;
54919;SDS011;63804;53.120;8.764;2022-12-16T04:26:09;30.73;;;16.02;;
54919;SDS011;63804;53.120;8.764;2022-12-16T04:28:35;32.13;;;16.40;;
54919;SDS011;63804;53.120;8.764;2022-12-16T04:31:01;30.13;;;16.63;;
54919;SDS011;63804;53.120;8.764;2022-12-16T04:33:27;31.55;;;17.05;;
54919;SDS011;63804;53.120;8.764;2022-12-16T04:36:11;31.65;;;16.33;;
54919;SDS011;63804;53.120;8.764;2022-12-16T04:38:56;26.58;;;15.85;;
54919;SDS011;63804;53.120;8.764;2022-12-16T04:44:30;29.27;;;16.00;;
54919;SDS011;63804;53.120;8.764;2022-12-16T04:47:15;28.35;;;15.48;;
54919;SDS011;63804;53.120;8.764;2022-12-16T04:49:59;28.02;;;16.58;;
54919;SDS011;63804;53.120;8.764;2022-12-16T04:52:43;26.85;;;16.48;;
54919;SDS011;63804;53.120;8.764;2022-12-16T04:55:28;30.10;;;16.45;;
54919;SDS011;63804;53.120;8.764;2022-12-16T05:00:56;29.30;;;14.87;;
54919;SDS011;63804;53.120;8.764;2022-12-16T05:03:41;27.75;;;16.00;;
54919;SDS011;63804;53.120;8.764;2022-12-16T05:06:26;28.83;;;16.00;;
54919;SDS011;63804;53.120;8.764;2022-12-16T05:09:10;29.52;;;15.55;;
54919;SDS011;63804;53.120;8.764;2022-12-16T05:14:38;30.90;;;16.90;;
54919;SDS011;63804;53.120;8.764;2022-12-16T05:20:13;29.95;;;15.18;;
54919;SDS011;63804;53.120;8.764;2022-12-16T05:22:58;29.23;;;16.15;;
54919;SDS011;63804;53.120;8.764;2022-12-16T05:28:26;31.42;;;16.50;;
54919;SDS011;63804;53.120;8.764;2022-12-16T05:31:11;28.38;;;16.40;;
54919;SDS011;63804;53.120;8.764;2022-12-16T05:36:39;30.13;;;16.23;;
54919;SDS011;63804;53.120;8.764;2022-12-16T05:42:08;36.23;;;17.03;;
54919;SDS011;63804;53.120;8.764;2022-12-16T05:44:52;27.77;;;15.65;;
54919;SDS011;63804;53.120;8.764;2022-12-16T05:50:22;30.38;;;15.88;;
54919;SDS011;63804;53.120;8.764;2022-12-16T05:55:50;27.20;;;16.48;;
54919;SDS011;63804;53.120;8.764;2022-12-16T06:01:19;28.60;;;16.20;;
54919;SDS011;63804;53.120;8.764;2022-12-16T06:04:03;30.55;;;17.27;;
54919;SDS011;63804;53.120;8.764;2022-12-16T06:09:32;33.28;;;18.27;;
54919;SDS011;63804;53.120;8.764;2022-12-16T06:15:01;30.87;;;16.80;;
54919;SDS011;63804;53.120;8.764;2022-12-16T06:20:33;32.83;;;17.15;;
54919;SDS011;63804;53.120;8.764;2022-12-16T06:23:18;36.45;;;18.65;;
54919;SDS011;63804;53.120;8.764;2022-12-16T06:26:03;35.30;;;18.00;;
54919;SDS011;63804;53.120;8.764;2022-12-16T06:28:47;37.53;;;18.30;;
54919;SDS011;63804;53.120;8.764;2022-12-16T06:31:32;45.15;;;21.35;;
54919;SDS011;63804;53.120;8.764;2022-12-16T06:37:00;46.40;;;21.42;;
54919;SDS011;63804;53.120;8.764;2022-12-16T06:42:29;48.97;;;21.98;;
54919;SDS011;63804;53.120;8.764;2022-12-16T06:45:13;50.65;;;21.50;;
54919;SDS011;63804;53.120;8.764;2022-12-16T06:50:42;38.92;;;18.67;;
54919;SDS011;63804;53.120;8.764;2022-12-16T06:53:41;40.53;;;19.67;;
54919;SDS011;63804;53.120;8.764;2022-12-16T06:56:25;41.88;;;19.83;;
54919;SDS011;63804;53.120;8.764;2022-12-16T07:01:53;51.47;;;22.23;;
54919;SDS011;63804;53.120;8.764;2022-12-16T07:04:38;55.65;;;22.67;;
54919;SDS011;63804;53.120;8.764;2022-12-16T07:07:22;52.50;;;21.80;;
54919;SDS011;63804;53.120;8.764;2022-12-16T07:13:07;56.88;;;22.65;;
54919;SDS011;63804;53.120;8.764;2022-12-16T07:15:52;51.20;;;22.50;;
54919;SDS011;63804;53.120;8.764;2022-12-16T07:18:36;49.97;;;21.13;;
54919;SDS011;63804;53.120;8.764;2022-12-16T07:21:20;50.65;;;21.15;;
54919;SDS011;63804;53.120;8.764;2022-12-16T07:24:04;48.33;;;20.30;;
54919;SDS011;63804;53.120;8.764;2022-12-16T07:26:49;53.45;;;22.08;;
54919;SDS011;63804;53.120;8.764;2022-12-16T07:29:33;51.85;;;21.85;;
54919;SDS011;63804;53.120;8.764;2022-12-16T07:32:17;51.00;;;22.85;;
54919;SDS011;63804;53.120;8.764;2022-12-16T07:35:02;51.78;;;22.48;;
54919;SDS011;63804;53.120;8.764;2022-12-16T07:37:46;51.10;;;22.92;;
54919;SDS011;63804;53.120;8.764;2022-12-16T07:40:30;57.33;;;22.92;;
54919;SDS011;63804;53.120;8.764;2022-12-16T07:43:14;56.03;;;24.20;;
54919;SDS011;63804;53.120;8.764;2022-12-16T07:48:43;68.22;;;25.15;;
54919;SDS011;63804;53.120;8.764;2022-12-16T07:51:27;69.20;;;25.80;;
54919;SDS011;63804;53.120;8.764;2022-12-16T07:54:31;82.67;;;29.87;;
54919;SDS011;63804;53.120;8.764;2022-12-16T07:57:15;85.10;;;29.10;;
54919;SDS011;63804;53.120;8.764;2022-12-16T08:00:17;81.57;;;27.85;;
54919;SDS011;63804;53.120;8.764;2022-12-16T08:05:45;66.63;;;24.10;;
54919;SDS011;63804;53.120;8.764;2022-12-16T08:08:29;69.85;;;26.65;;
54919;SDS011;63804;53.120;8.764;2022-12-16T08:11:13;72.18;;;26.98;;
54919;SDS011;63804;53.120;8.764;2022-12-16T08:13:58;79.32;;;27.23;;
54919;SDS011;63804;53.120;8.764;2022-12-16T08:16:42;79.15;;;27.95;;
54919;SDS011;63804;53.120;8.764;2022-12-16T08:22:11;74.57;;;27.10;;
54919;SDS011;63804;53.120;8.764;2022-12-16T08:27:39;76.93;;;26.27;;
54919;SDS011;63804;53.120;8.764;2022-12-16T08:30:24;90.32;;;28.30;;
54919;SDS011;63804;53.120;8.764;2022-12-16T08:35:53;71.50;;;26.60;;
54919;SDS011;63804;53.120;8.764;2022-12-16T08:38:41;72.93;;;27.75;;
54919;SDS011;63804;53.120;8.764;2022-12-16T08:41:45;60.63;;;25.45;;
54919;SDS011;63804;53.120;8.764;2022-12-16T08:44:29;60.15;;;24.02;;
54919;SDS011;63804;53.120;8.764;2022-12-16T08:47:14;65.47;;;25.45;;
54919;SDS011;63804;53.120;8.764;2022-12-16T08:49:58;69.80;;;25.60;;
54919;SDS011;63804;53.120;8.764;2022-12-16T08:55:44;66.53;;;24.10;;
54919;SDS011;63804;53.120;8.764;2022-12-16T08:58:28;64.93;;;25.45;;
54919;SDS011;63804;53.120;8.764;2022-12-16T09:01:12;56.80;;;22.88;;
54919;SDS011;63804;53.120;8.764;2022-12-16T09:03:57;50.97;;;22.35;;
54919;SDS011;63804;53.120;8.764;2022-12-16T09:09:25;49.47;;;21.77;;
54919;SDS011;63804;53.120;8.764;2022-12-16T09:12:10;46.30;;;21.15;;
54919;SDS011;63804;53.120;8.764;2022-12-16T09:14:54;43.30;;;20.40;;
54919;SDS011;63804;53.120;8.764;2022-12-16T09:17:52;40.85;;;20.25;;
54919;SDS011;63804;53.120;8.764;2022-12-16T09:20:37;42.95;;;19.95;;
54919;SDS011;63804;53.120;8.764;2022-12-16T09:23:22;37.55;;;20.05;;
54919;SDS011;63804;53.120;8.764;2022-12-16T09:26:06;38.15;;;20.05;;
54919;SDS011;63804;53.120;8.764;2022-12-16T09:28:50;42.15;;;20.27;;
54919;SDS011;63804;53.120;8.764;2022-12-16T09:34:19;41.57;;;19.83;;
54919;SDS011;63804;53.120;8.764;2022-12-16T09:39:47;47.67;;;20.60;;
54919;SDS011;63804;53.120;8.764;2022-12-16T09:42:45;48.60;;;22.98;;
54919;SDS011;63804;53.120;8.764;2022-12-16T09:45:49;51.53;;;22.58;;
54919;SDS011;63804;53.120;8.764;2022-12-16T09:49:17;52.92;;;22.30;;
54919;SDS011;63804;53.120;8.764;2022-12-16T09:52:04;46.97;;;22.88;;
54919;SDS011;63804;53.120;8.764;2022-12-16T09:54:55;46.72;;;21.60;;
54919;SDS011;63804;53.120;8.764;2022-12-16T09:57:40;41.55;;;21.90;;
54919;SDS011;63804;53.120;8.764;2022-12-16T10:00:26;43.17;;;21.58;;
54919;SDS011;63804;53.120;8.764;2022-12-16T10:03:18;44.97;;;20.40;;
54919;SDS011;63804;53.120;8.764;2022-12-16T10:07:06;43.65;;;20.77;;
54919;SDS011;63804;53.120;8.764;2022-12-16T10:09:28;44.22;;;21.20;;
54919;SDS011;63804;53.120;8.764;2022-12-16T10:15:17;43.35;;;20.73;;
54919;SDS011;63804;53.120;8.764;2022-12-16T10:18:11;45.08;;;22.13;;
54919;SDS011;63804;53.120;8.764;2022-12-16T10:21:07;48.90;;;23.42;;
54919;SDS011;63804;53.120;8.764;2022-12-16T10:24:03;43.67;;;20.70;;
54919;SDS011;63804;53.120;8.764;2022-12-16T10:29:55;43.95;;;22.20;;
54919;SDS011;63804;53.120;8.764;2022-12-16T10:32:40;40.78;;;22.38;;
54919;SDS011;63804;53.120;8.764;2022-12-16T10:35:31;46.55;;;22.90;;
54919;SDS011;63804;53.120;8.764;2022-12-16T10:38:34;42.33;;;21.83;;
54919;SDS011;63804;53.120;8.764;2022-12-16T10:41:21;45.50;;;22.70;;
54919;SDS011;63804;53.120;8.764;2022-12-16T10:44:15;45.42;;;22.15;;
54919;SDS011;63804;53.120;8.764;2022-12-16T10:47:06;44.47;;;21.08;;
54919;SDS011;63804;53.120;8.764;2022-12-16T10:49:52;46.45;;;22.38;;
54919;SDS011;63804;53.120;8.764;2022-12-16T10:52:42;47.17;;;23.02;;
54919;SDS011;63804;53.120;8.764;2022-12-16T10:58:36;45.90;;;23.05;;
54919;SDS011;63804;53.120;8.764;2022-12-16T11:01:29;43.50;;;22.30;;
54919;SDS011;63804;53.120;8.764;2022-12-16T11:04:33;43.33;;;22.48;;
54919;SDS011;63804;53.120;8.764;2022-12-16T11:10:52;46.13;;;22.92;;
54919;SDS011;63804;53.120;8.764;2022-12-16T11:13:25;45.42;;;23.67;;
54919;SDS011;63804;53.120;8.764;2022-12-16T11:16:15;52.70;;;23.88;;
54919;SDS011;63804;53.120;8.764;2022-12-16T11:19:03;49.17;;;24.25;;
54919;SDS011;63804;53.120;8.764;2022-12-16T11:21:47;46.13;;;23.83;;
54919;SDS011;63804;53.120;8.764;2022-12-16T11:24:32;45.40;;;23.50;;
54919;SDS011;63804;53.120;8.764;2022-12-16T11:27:24;48.22;;;24.10;;
54919;SDS011;63804;53.120;8.764;2022-12-16T11:32:58;47.08;;;25.73;;
54919;SDS011;63804;53.120;8.764;2022-12-16T11:35:54;47.60;;;24.70;;
54919;SDS011;63804;53.120;8.764;2022-12-16T11:38:48;47.35;;;23.83;;
54919;SDS011;63804;53.120;8.764;2022-12-16T11:41:38;45.85;;;23.38;;
54919;SDS011;63804;53.120;8.764;2022-12-16T11:47:50;44.03;;;24.17;;
54919;SDS011;63804;53.120;8.764;2022-12-16T11:50:54;41.88;;;21.38;;
54919;SDS011;63804;53.120;8.764;2022-12-16T11:56:47;42.17;;;22.27;;
54919;SDS011;63804;53.120;8.764;2022-12-16T12:02:32;44.88;;;23.15;;
54919;SDS011;63804;53.120;8.764;2022-12-16T12:05:23;43.72;;;22.55;;
54919;SDS011;63804;53.120;8.764;2022-12-16T12:11:29;43.67;;;23.13;;
54919;SDS011;63804;53.120;8.764;2022-12-16T12:17:07;43.38;;;23.40;;
54919;SDS011;63804;53.120;8.764;2022-12-16T12:23:09;46.63;;;24.58;;
54919;SDS011;63804;53.120;8.764;2022-12-16T12:26:13;40.13;;;22.58;;
54919;SDS011;63804;53.120;8.764;2022-12-16T12:35:01;43.80;;;23.30;;
54919;SDS011;63804;53.120;8.764;2022-12-16T12:37:50;44.47;;;24.05;;
54919;SDS011;63804;53.120;8.764;2022-12-16T12:41:01;45.38;;;24.00;;
54919;SDS011;63804;53.120;8.764;2022-12-16T12:43:59;41.92;;;23.23;;
54919;SDS011;63804;53.120;8.764;2022-12-16T12:47:16;40.00;;;22.65;;
54919;SDS011;63804;53.120;8.764;2022-12-16T12:50:14;44.97;;;22.92;;
54919;SDS011;63804;53.120;8.764;2022-12-16T12:53:10;48.00;;;23.58;;
54919;SDS011;63804;53.120;8.764;2022-12-16T12:56:07;42.38;;;23.70;;
54919;SDS011;63804;53.120;8.764;2022-12-16T12:59:01;42.60;;;24.23;;
54919;SDS011;63804;53.120;8.764;2022-12-16T13:01:55;40.42;;;23.67;;
54919;SDS011;63804;53.120;8.764;2022-12-16T13:04:40;43.20;;;23.65;;
54919;SDS011;63804;53.120;8.764;2022-12-16T13:07:25;38.13;;;22.23;;
54919;SDS011;63804;53.120;8.764;2022-12-16T13:15:58;38.88;;;21.77;;
54919;SDS011;63804;53.120;8.764;2022-12-16T13:18:42;38.40;;;22.15;;
54919;SDS011;63804;53.120;8.764;2022-12-16T13:27:22;41.33;;;22.90;;
54919;SDS011;63804;53.120;8.764;2022-12-16T13:33:05;40.75;;;22.30;;
54919;SDS011;63804;53.120;8.764;2022-12-16T13:36:11;40.85;;;23.05;;
54919;SDS011;63804;53.120;8.764;2022-12-16T13:38:58;39.35;;;21.98;;
54919;SDS011;63804;53.120;8.764;2022-12-16T13:41:53;41.72;;;21.75;;
54919;SDS011;63804;53.120;8.764;2022-12-16T13:50:39;38.58;;;22.05;;
54919;SDS011;63804;53.120;8.764;2022-12-16T13:53:32;37.97;;;21.92;;
54919;SDS011;63804;53.120;8.764;2022-12-16T13:56:34;40.47;;;22.00;;
54919;SDS011;63804;53.120;8.764;2022-12-16T13:59:23;36.70;;;21.95;;
54919;SDS011;63804;53.120;8.764;2022-12-16T14:02:13;38.50;;;21.92;;
54919;SDS011;63804;53.120;8.764;2022-12-16T14:05:03;33.83;;;21.42;;
54919;SDS011;63804;53.120;8.764;2022-12-16T14:08:00;40.22;;;21.17;;
54919;SDS011;63804;53.120;8.764;2022-12-16T14:10:45;33.47;;;20.67;;
54919;SDS011;63804;53.120;8.764;2022-12-16T14:16:56;35.15;;;22.13;;
54919;SDS011;63804;53.120;8.764;2022-12-16T14:26:21;33.95;;;20.75;;
54919;SDS011;63804;53.120;8.764;2022-12-16T14:29:18;36.65;;;22.17;;
54919;SDS011;63804;53.120;8.764;2022-12-16T14:32:27;32.78;;;19.88;;
54919;SDS011;63804;53.120;8.764;2022-12-16T14:35:12;32.20;;;19.90;;
54919;SDS011;63804;53.120;8.764;2022-12-16T14:38:11;35.58;;;21.75;;
54919;SDS011;63804;53.120;8.764;2022-12-16T14:41:06;32.42;;;20.55;;
54919;SDS011;63804;53.120;8.764;2022-12-16T14:43:53;36.65;;;20.60;;
54919;SDS011;63804;53.120;8.764;2022-12-16T14:49:23;36.13;;;20.40;;
54919;SDS011;63804;53.120;8.764;2022-12-16T14:52:16;35.45;;;21.52;;
54919;SDS011;63804;53.120;8.764;2022-12-16T14:55:09;37.30;;;22.13;;
54919;SDS011;63804;53.120;8.764;2022-12-16T14:58:10;37.13;;;21.38;;
54919;SDS011;63804;53.120;8.764;2022-12-16T15:01:01;36.45;;;22.02;;
54919;SDS011;63804;53.120;8.764;2022-12-16T15:03:54;37.72;;;21.80;;
54919;SDS011;63804;53.120;8.764;2022-12-16T15:06:42;40.38;;;22.70;;
54919;SDS011;63804;53.120;8.764;2022-12-16T15:09:31;38.05;;;21.60;;
54919;SDS011;63804;53.120;8.764;2022-12-16T15:12:37;39.50;;;22.50;;
54919;SDS011;63804;53.120;8.764;2022-12-16T15:18:17;36.80;;;22.35;;
54919;SDS011;63804;53.120;8.764;2022-12-16T15:21:05;42.58;;;22.88;;
54919;SDS011;63804;53.120;8.764;2022-12-16T15:23:50;37.25;;;22.02;;
54919;SDS011;63804;53.120;8.764;2022-12-16T15:26:35;37.53;;;21.35;;
54919;SDS011;63804;53.120;8.764;2022-12-16T15:29:39;41.75;;;24.20;;
54919;SDS011;63804;53.120;8.764;2022-12-16T15:38:16;38.67;;;22.13;;
54919;SDS011;63804;53.120;8.764;2022-12-16T15:41:01;48.85;;;23.35;;
54919;SDS011;63804;53.120;8.764;2022-12-16T15:43:48;40.22;;;23.25;;
54919;SDS011;63804;53.120;8.764;2022-12-16T15:46:33;40.33;;;23.38;;
54919;SDS011;63804;53.120;8.764;2022-12-16T15:52:49;38.13;;;23.10;;
54919;SDS011;63804;53.120;8.764;2022-12-16T15:58:13;43.22;;;23.42;;
54919;SDS011;63804;53.120;8.764;2022-12-16T16:01:01;44.92;;;24.83;;
54919;SDS011;63804;53.120;8.764;2022-12-16T16:03:49;49.38;;;24.98;;
54919;SDS011;63804;53.120;8.764;2022-12-16T16:06:35;42.63;;;23.70;;
54919;SDS011;63804;53.120;8.764;2022-12-16T16:09:26;47.17;;;25.67;;
54919;SDS011;63804;53.120;8.764;2022-12-16T16:12:14;48.63;;;27.02;;
54919;SDS011;63804;53.120;8.764;2022-12-16T16:15:00;76.25;;;36.63;;
54919;SDS011;63804;53.120;8.764;2022-12-16T16:20:30;56.47;;;31.10;;
54919;SDS011;63804;53.120;8.764;2022-12-16T16:25:59;51.17;;;28.27;;
54919;SDS011;63804;53.120;8.764;2022-12-16T16:28:50;53.10;;;27.58;;
54919;SDS011;63804;53.120;8.764;2022-12-16T16:31:35;48.80;;;27.15;;
54919;SDS011;63804;53.120;8.764;2022-12-16T16:34:39;63.08;;;31.20;;
54919;SDS011;63804;53.120;8.764;2022-12-16T16:40:17;49.10;;;27.30;;
54919;SDS011;63804;53.120;8.764;2022-12-16T16:43:11;54.53;;;28.70;;
54919;SDS011;63804;53.120;8.764;2022-12-16T16:48:40;58.73;;;29.67;;
54919;SDS011;63804;53.120;8.764;2022-12-16T16:51:24;53.75;;;30.33;;
54919;SDS011;63804;53.120;8.764;2022-12-16T16:54:09;58.40;;;29.98;;
54919;SDS011;63804;53.120;8.764;2022-12-16T16:59:38;51.83;;;27.70;;
54919;SDS011;63804;53.120;8.764;2022-12-16T17:02:23;47.13;;;26.73;;
54919;SDS011;63804;53.120;8.764;2022-12-16T17:05:10;48.35;;;27.45;;
54919;SDS011;63804;53.120;8.764;2022-12-16T17:07:55;50.95;;;27.75;;
54919;SDS011;63804;53.120;8.764;2022-12-16T17:10:41;52.65;;;27.98;;
54919;SDS011;63804;53.120;8.764;2022-12-16T17:13:25;47.88;;;27.23;;
54919;SDS011;63804;53.120;8.764;2022-12-16T17:16:10;53.15;;;27.27;;
54919;SDS011;63804;53.120;8.764;2022-12-16T17:18:55;48.63;;;26.00;;
54919;SDS011;63804;53.120;8.764;2022-12-16T17:21:39;53.83;;;27.48;;
54919;SDS011;63804;53.120;8.764;2022-12-16T17:27:15;46.20;;;25.65;;
54919;SDS011;63804;53.120;8.764;2022-12-16T17:30:00;41.72;;;24.25;;
54919;SDS011;63804;53.120;8.764;2022-12-16T17:32:45;40.17;;;21.88;;
54919;SDS011;63804;53.120;8.764;2022-12-16T17:35:29;43.67;;;23.05;;
54919;SDS011;63804;53.120;8.764;2022-12-16T17:38:14;41.67;;;24.17;;
54919;SDS011;63804;53.120;8.764;2022-12-16T17:43:42;38.88;;;22.38;;
54919;SDS011;63804;53.120;8.764;2022-12-16T17:49:11;48.87;;;24.67;;
54919;SDS011;63804;53.120;8.764;2022-12-16T17:51:55;43.53;;;24.30;;
54919;SDS011;63804;53.120;8.764;2022-12-16T17:54:40;46.65;;;26.65;;
54919;SDS011;63804;53.120;8.764;2022-12-16T18:00:08;47.80;;;26.67;;
54919;SDS011;63804;53.120;8.764;2022-12-16T18:02:53;44.80;;;26.60;;
54919;SDS011;63804;53.120;8.764;2022-12-16T18:08:22;45.28;;;27.15;;
54919;SDS011;63804;53.120;8.764;2022-12-16T18:13:50;44.90;;;25.73;;
54919;SDS011;63804;53.120;8.764;2022-12-16T18:16:35;43.05;;;24.92;;
54919;SDS011;63804;53.120;8.764;2022-12-16T18:19:19;46.28;;;24.55;;
54919;SDS011;63804;53.120;8.764;2022-12-16T18:22:03;40.35;;;22.92;;
54919;SDS011;63804;53.120;8.764;2022-12-16T18:24:48;42.00;;;22.38;;
54919;SDS011;63804;53.120;8.764;2022-12-16T18:27:32;39.60;;;22.33;;
54919;SDS011;63804;53.120;8.764;2022-12-16T18:30:18;41.15;;;21.65;;
54919;SDS011;63804;53.120;8.764;2022-12-16T18:33:02;35.58;;;21.67;;
54919;SDS011;63804;53.120;8.764;2022-12-16T18:38:31;38.33;;;21.57;;
54919;SDS011;63804;53.120;8.764;2022-12-16T18:41:16;40.10;;;22.08;;
54919;SDS011;63804;53.120;8.764;2022-12-16T18:44:03;41.95;;;23.35;;
54919;SDS011;63804;53.120;8.764;2022-12-16T18:46:48;40.08;;;22.80;;
54919;SDS011;63804;53.120;8.764;2022-12-16T18:52:17;42.60;;;22.25;;
54919;SDS011;63804;53.120;8.764;2022-12-16T18:55:02;38.03;;;21.63;;
54919;SDS011;63804;53.120;8.764;2022-12-16T18:57:49;37.33;;;23.38;;
54919;SDS011;63804;53.120;8.764;2022-12-16T19:00:34;44.10;;;23.25;;
54919;SDS011;63804;53.120;8.764;2022-12-16T19:03:18;37.45;;;22.50;;
54919;SDS011;63804;53.120;8.764;2022-12-16T19:06:02;41.08;;;23.73;;
54919;SDS011;63804;53.120;8.764;2022-12-16T19:08:47;37.80;;;23.10;;
54919;SDS011;63804;53.120;8.764;2022-12-16T19:11:31;38.90;;;23.15;;
54919;SDS011;63804;53.120;8.764;2022-12-16T19:14:15;43.38;;;23.60;;
54919;SDS011;63804;53.120;8.764;2022-12-16T19:16:59;41.60;;;23.25;;
54919;SDS011;63804;53.120;8.764;2022-12-16T19:22:28;38.28;;;23.48;;
54919;SDS011;63804;53.120;8.764;2022-12-16T19:27:57;46.03;;;25.73;;
54919;SDS011;63804;53.120;8.764;2022-12-16T19:30:42;41.10;;;24.55;;
54919;SDS011;63804;53.120;8.764;2022-12-16T19:33:26;47.85;;;25.35;;
54919;SDS011;63804;53.120;8.764;2022-12-16T19:36:10;36.80;;;22.58;;
54919;SDS011;63804;53.120;8.764;2022-12-16T19:38:54;44.15;;;23.90;;
54919;SDS011;63804;53.120;8.764;2022-12-16T19:41:58;40.80;;;24.63;;
54919;SDS011;63804;53.120;8.764;2022-12-16T19:47:27;47.10;;;24.80;;
54919;SDS011;63804;53.120;8.764;2022-12-16T19:50:11;53.00;;;28.15;;
54919;SDS011;63804;53.120;8.764;2022-12-16T19:52:55;48.08;;;26.83;;